sensor_id;sensor_type;location;lat;lon;timestamp;noise_LAeq;noise_LA_min;noise_LA_max;noise_LA01;noise_LA95
59284;Laerm;45056;47.602;9.886;2023-03-14T00:01:13;48.02;44.35;56.44;;
59284;Laerm;45056;47.602;9.886;2023-03-14T00:03:44;47.67;44.69;52.54;;
59284;Laerm;45056;47.602;9.886;2023-03-14T00:06:13;49.54;43.77;60.17;;
59284;Laerm;45056;47.602;9.886;2023-03-14T00:08:43;48.86;44.27;61.05;;
59284;Laerm;45056;47.602;9.886;2023-03-14T00:11:15;51.53;44.11;63.77;;
59284;Laerm;45056;47.602;9.886;2023-03-14T00:13:47;48.87;43.63;62.72;;
59284;Laerm;45056;47.602;9.886;2023-03-14T00:16:16;49.01;44.43;62.42;;
59284;Laerm;45056;47.602;9.886;2023-03-14T00:18:46;48.61;45.36;56.74;;
59284;Laerm;45056;47.602;9.886;2023-03-14T00:21:14;48.86;45.66;57.91;;
59284;Laerm;45056;47.602;9.886;2023-03-14T00:23:43;49.52;45.63;60.02;;
59284;Laerm;45056;47.602;9.886;2023-03-14T00:26:14;47.94;45.07;58.25;;
59284;Laerm;45056;47.602;9.886;2023-03-14T00:28:43;47.99;45.20;56.94;;
59284;Laerm;45056;47.602;9.886;2023-03-14T00:31:14;47.18;44.15;55.11;;
59284;Laerm;45056;47.602;9.886;2023-03-14T00:33:46;47.93;43.09;61.72;;
59284;Laerm;45056;47.602;9.886;2023-03-14T00:36:16;47.85;44.52;56.45;;
59284;Laerm;45056;47.602;9.886;2023-03-14T00:38:48;47.73;44.73;54.46;;
59284;Laerm;45056;47.602;9.886;2023-03-14T00:41:20;48.52;45.83;53.02;;
59284;Laerm;45056;47.602;9.886;2023-03-14T00:43:50;49.86;46.20;61.21;;
59284;Laerm;45056;47.602;9.886;2023-03-14T00:46:18;49.05;45.66;58.17;;
59284;Laerm;45056;47.602;9.886;2023-03-14T00:48:48;49.01;45.72;55.80;;
59284;Laerm;45056;47.602;9.886;2023-03-14T00:51:16;48.61;45.39;60.47;;
59284;Laerm;45056;47.602;9.886;2023-03-14T00:53:44;48.68;45.54;59.35;;
59284;Laerm;45056;47.602;9.886;2023-03-14T00:56:13;48.43;45.42;55.79;;
59284;Laerm;45056;47.602;9.886;2023-03-14T00:58:42;49.11;45.69;62.24;;
59284;Laerm;45056;47.602;9.886;2023-03-14T01:01:14;49.74;45.45;60.21;;
59284;Laerm;45056;47.602;9.886;2023-03-14T01:03:42;49.00;45.14;70.56;;
59284;Laerm;45056;47.602;9.886;2023-03-14T01:06:15;48.03;44.94;57.94;;
59284;Laerm;45056;47.602;9.886;2023-03-14T01:08:45;49.84;47.34;56.16;;
59284;Laerm;45056;47.602;9.886;2023-03-14T01:11:18;48.23;45.23;56.28;;
59284;Laerm;45056;47.602;9.886;2023-03-14T01:13:46;48.68;46.13;55.96;;
59284;Laerm;45056;47.602;9.886;2023-03-14T01:16:16;48.90;46.20;57.30;;
59284;Laerm;45056;47.602;9.886;2023-03-14T01:18:46;48.72;46.25;54.67;;
59284;Laerm;45056;47.602;9.886;2023-03-14T01:21:19;48.32;45.36;55.23;;
59284;Laerm;45056;47.602;9.886;2023-03-14T01:23:49;48.53;44.73;59.84;;
59284;Laerm;45056;47.602;9.886;2023-03-14T01:26:21;47.52;44.89;52.60;;
59284;Laerm;45056;47.602;9.886;2023-03-14T01:28:53;46.56;43.94;51.95;;
59284;Laerm;45056;47.602;9.886;2023-03-14T01:31:22;46.92;43.72;54.96;;
59284;Laerm;45056;47.602;9.886;2023-03-14T01:33:51;46.70;44.35;54.35;;
59284;Laerm;45056;47.602;9.886;2023-03-14T01:36:20;46.61;44.15;51.49;;
59284;Laerm;45056;47.602;9.886;2023-03-14T01:38:48;46.93;44.03;54.10;;
59284;Laerm;45056;47.602;9.886;2023-03-14T01:41:21;47.14;43.58;63.46;;
59284;Laerm;45056;47.602;9.886;2023-03-14T01:43:50;44.94;42.47;52.74;;
59284;Laerm;45056;47.602;9.886;2023-03-14T01:46:35;45.43;42.16;59.38;;
59284;Laerm;45056;47.602;9.886;2023-03-14T01:49:16;43.80;41.53;51.99;;
59284;Laerm;45056;47.602;9.886;2023-03-14T01:51:55;43.63;41.38;48.03;;
59284;Laerm;45056;47.602;9.886;2023-03-14T01:54:32;43.47;40.89;46.89;;
59284;Laerm;45056;47.602;9.886;2023-03-14T01:57:08;43.24;40.98;47.54;;
59284;Laerm;45056;47.602;9.886;2023-03-14T01:59:43;43.21;40.98;47.10;;
59284;Laerm;45056;47.602;9.886;2023-03-14T02:02:16;44.97;40.33;55.65;;
59284;Laerm;45056;47.602;9.886;2023-03-14T02:04:45;43.81;41.06;56.34;;
59284;Laerm;45056;47.602;9.886;2023-03-14T02:07:19;43.16;40.62;46.33;;
59284;Laerm;45056;47.602;9.886;2023-03-14T02:09:49;43.28;41.22;47.43;;
59284;Laerm;45056;47.602;9.886;2023-03-14T02:12:20;42.99;40.62;51.30;;
59284;Laerm;45056;47.602;9.886;2023-03-14T02:14:49;42.83;40.98;46.78;;
59284;Laerm;45056;47.602;9.886;2023-03-14T02:17:19;43.65;40.80;53.90;;
59284;Laerm;45056;47.602;9.886;2023-03-14T02:20:08;43.82;40.98;52.49;;
59284;Laerm;45056;47.602;9.886;2023-03-14T02:22:45;44.22;40.33;58.87;;
59284;Laerm;45056;47.602;9.886;2023-03-14T02:25:21;42.51;39.58;47.24;;
59284;Laerm;45056;47.602;9.886;2023-03-14T02:27:54;42.77;40.62;49.95;;
59284;Laerm;45056;47.602;9.886;2023-03-14T02:30:26;43.27;40.53;52.91;;
59284;Laerm;45056;47.602;9.886;2023-03-14T02:33:00;47.22;40.53;64.46;;
59284;Laerm;45056;47.602;9.886;2023-03-14T02:35:37;43.20;40.80;48.66;;
59284;Laerm;45056;47.602;9.886;2023-03-14T02:38:19;43.27;39.92;55.13;;
59284;Laerm;45056;47.602;9.886;2023-03-14T02:40:50;42.18;39.81;52.13;;
59284;Laerm;45056;47.602;9.886;2023-03-14T02:43:20;42.12;38.81;50.67;;
59284;Laerm;45056;47.602;9.886;2023-03-14T02:45:52;44.91;38.95;66.18;;
59284;Laerm;45056;47.602;9.886;2023-03-14T02:48:25;43.59;38.37;63.73;;
59284;Laerm;45056;47.602;9.886;2023-03-14T02:50:57;41.94;38.52;49.89;;
59284;Laerm;45056;47.602;9.886;2023-03-14T02:53:30;43.29;37.88;60.28;;
59284;Laerm;45056;47.602;9.886;2023-03-14T02:56:00;40.75;36.45;45.77;;
59284;Laerm;45056;47.602;9.886;2023-03-14T02:58:30;41.31;37.52;50.41;;
59284;Laerm;45056;47.602;9.886;2023-03-14T03:00:58;45.01;37.70;57.12;;
59284;Laerm;45056;47.602;9.886;2023-03-14T03:03:26;42.40;37.52;56.61;;
59284;Laerm;45056;47.602;9.886;2023-03-14T03:05:56;42.39;37.32;57.35;;
59284;Laerm;45056;47.602;9.886;2023-03-14T03:08:26;41.85;37.12;56.28;;
59284;Laerm;45056;47.602;9.886;2023-03-14T03:10:57;41.10;38.05;50.95;;
59284;Laerm;45056;47.602;9.886;2023-03-14T03:13:25;40.67;37.12;50.57;;
59284;Laerm;45056;47.602;9.886;2023-03-14T03:15:55;41.48;37.70;53.43;;
59284;Laerm;45056;47.602;9.886;2023-03-14T03:18:23;41.90;37.52;47.26;;
59284;Laerm;45056;47.602;9.886;2023-03-14T03:20:51;41.25;37.12;51.69;;
59284;Laerm;45056;47.602;9.886;2023-03-14T03:23:19;40.78;36.91;44.83;;
59284;Laerm;45056;47.602;9.886;2023-03-14T03:25:51;40.61;37.12;44.39;;
59284;Laerm;45056;47.602;9.886;2023-03-14T03:28:19;42.17;37.52;54.11;;
59284;Laerm;45056;47.602;9.886;2023-03-14T03:30:47;41.69;37.52;54.86;;
59284;Laerm;45056;47.602;9.886;2023-03-14T03:33:17;40.37;36.91;44.51;;
59284;Laerm;45056;47.602;9.886;2023-03-14T03:35:47;41.91;36.91;58.37;;
59284;Laerm;45056;47.602;9.886;2023-03-14T03:38:16;40.49;36.91;43.63;;
59284;Laerm;45056;47.602;9.886;2023-03-14T03:40:46;42.46;37.52;56.25;;
59284;Laerm;45056;47.602;9.886;2023-03-14T03:43:14;40.67;37.12;44.97;;
59284;Laerm;45056;47.602;9.886;2023-03-14T03:45:42;43.89;38.05;57.10;;
59284;Laerm;45056;47.602;9.886;2023-03-14T03:48:11;43.24;37.88;58.41;;
59284;Laerm;45056;47.602;9.886;2023-03-14T03:50:45;42.44;38.05;54.82;;
59284;Laerm;45056;47.602;9.886;2023-03-14T03:53:13;41.91;37.70;51.67;;
59284;Laerm;45056;47.602;9.886;2023-03-14T03:55:41;42.24;37.52;55.25;;
59284;Laerm;45056;47.602;9.886;2023-03-14T03:58:10;41.65;37.70;52.83;;
59284;Laerm;45056;47.602;9.886;2023-03-14T04:00:38;46.07;38.37;57.63;;
59284;Laerm;45056;47.602;9.886;2023-03-14T04:03:06;41.27;37.88;44.47;;
59284;Laerm;45056;47.602;9.886;2023-03-14T04:05:35;40.84;37.52;43.99;;
59284;Laerm;45056;47.602;9.886;2023-03-14T04:08:05;43.92;38.67;58.70;;
59284;Laerm;45056;47.602;9.886;2023-03-14T04:10:35;44.69;38.95;57.95;;
59284;Laerm;45056;47.602;9.886;2023-03-14T04:13:03;44.51;38.95;58.27;;
59284;Laerm;45056;47.602;9.886;2023-03-14T04:15:31;43.39;39.21;55.61;;
59284;Laerm;45056;47.602;9.886;2023-03-14T04:17:59;46.96;38.95;62.03;;
59284;Laerm;45056;47.602;9.886;2023-03-14T04:20:27;44.08;38.05;58.19;;
59284;Laerm;45056;47.602;9.886;2023-03-14T04:22:55;44.26;39.21;57.55;;
59284;Laerm;45056;47.602;9.886;2023-03-14T04:25:25;49.69;40.03;62.74;;
59284;Laerm;45056;47.602;9.886;2023-03-14T04:27:52;46.28;38.67;61.75;;
59284;Laerm;45056;47.602;9.886;2023-03-14T04:30:20;48.65;39.58;63.35;;
59284;Laerm;45056;47.602;9.886;2023-03-14T04:32:48;44.33;38.21;57.15;;
59284;Laerm;45056;47.602;9.886;2023-03-14T04:35:16;45.17;38.05;56.32;;
59284;Laerm;45056;47.602;9.886;2023-03-14T04:37:44;42.57;39.08;46.59;;
59284;Laerm;45056;47.602;9.886;2023-03-14T04:40:16;43.70;37.70;55.08;;
59284;Laerm;45056;47.602;9.886;2023-03-14T04:42:45;43.55;39.21;54.19;;
59284;Laerm;45056;47.602;9.886;2023-03-14T04:45:13;46.77;39.58;62.25;;
59284;Laerm;45056;47.602;9.886;2023-03-14T04:47:41;46.68;39.81;57.75;;
59284;Laerm;45056;47.602;9.886;2023-03-14T04:50:10;47.25;40.53;60.08;;
59284;Laerm;45056;47.602;9.886;2023-03-14T04:52:38;44.23;39.81;57.86;;
59284;Laerm;45056;47.602;9.886;2023-03-14T04:55:07;44.79;39.46;55.89;;
59284;Laerm;45056;47.602;9.886;2023-03-14T04:57:35;45.17;38.37;55.35;;
59284;Laerm;45056;47.602;9.886;2023-03-14T05:00:06;50.55;40.33;66.01;;
59284;Laerm;45056;47.602;9.886;2023-03-14T05:02:35;48.39;39.58;60.82;;
59284;Laerm;45056;47.602;9.886;2023-03-14T05:05:05;56.45;40.43;72.51;;
59284;Laerm;45056;47.602;9.886;2023-03-14T05:07:33;47.29;39.11;59.06;;
59284;Laerm;45056;47.602;9.886;2023-03-14T05:10:01;46.62;39.21;57.15;;
59284;Laerm;45056;47.602;9.886;2023-03-14T05:12:29;45.93;40.03;59.68;;
59284;Laerm;45056;47.602;9.886;2023-03-14T05:14:57;50.22;39.81;65.71;;
59284;Laerm;45056;47.602;9.886;2023-03-14T05:17:26;49.45;38.81;67.81;;
59284;Laerm;45056;47.602;9.886;2023-03-14T05:19:54;50.41;38.99;66.41;;
59284;Laerm;45056;47.602;9.886;2023-03-14T05:22:22;49.77;39.21;64.65;;
59284;Laerm;45056;47.602;9.886;2023-03-14T05:24:51;53.39;39.34;68.21;;
59284;Laerm;45056;47.602;9.886;2023-03-14T05:27:20;49.77;38.95;65.98;;
59284;Laerm;45056;47.602;9.886;2023-03-14T05:29:48;45.07;38.67;56.58;;
59284;Laerm;45056;47.602;9.886;2023-03-14T05:32:16;46.86;39.81;59.08;;
59284;Laerm;45056;47.602;9.886;2023-03-14T05:34:46;46.97;39.46;71.17;;
59284;Laerm;45056;47.602;9.886;2023-03-14T05:37:14;47.27;40.03;59.64;;
59284;Laerm;45056;47.602;9.886;2023-03-14T05:39:42;46.33;40.71;57.30;;
59284;Laerm;45056;47.602;9.886;2023-03-14T05:42:11;48.89;40.98;58.30;;
59284;Laerm;45056;47.602;9.886;2023-03-14T05:44:39;49.61;41.38;61.12;;
59284;Laerm;45056;47.602;9.886;2023-03-14T05:47:07;49.57;41.06;59.73;;
59284;Laerm;45056;47.602;9.886;2023-03-14T05:49:35;54.46;41.22;76.03;;
59284;Laerm;45056;47.602;9.886;2023-03-14T05:52:04;50.14;40.89;60.25;;
59284;Laerm;45056;47.602;9.886;2023-03-14T05:54:32;48.72;39.81;60.31;;
59284;Laerm;45056;47.602;9.886;2023-03-14T05:57:00;48.00;39.46;62.81;;
59284;Laerm;45056;47.602;9.886;2023-03-14T05:59:28;50.08;41.61;60.27;;
59284;Laerm;45056;47.602;9.886;2023-03-14T06:04:25;48.75;40.71;60.23;;
59284;Laerm;45056;47.602;9.886;2023-03-14T06:06:53;49.17;40.43;58.25;;
59284;Laerm;45056;47.602;9.886;2023-03-14T06:09:22;48.84;41.22;60.22;;
59284;Laerm;45056;47.602;9.886;2023-03-14T06:11:51;49.35;42.22;61.83;;
59284;Laerm;45056;47.602;9.886;2023-03-14T06:14:19;48.88;41.48;58.80;;
59284;Laerm;45056;47.602;9.886;2023-03-14T06:16:47;49.81;42.29;62.04;;
59284;Laerm;45056;47.602;9.886;2023-03-14T06:19:15;48.99;40.89;66.92;;
59284;Laerm;45056;47.602;9.886;2023-03-14T06:21:43;50.48;41.82;61.92;;
59284;Laerm;45056;47.602;9.886;2023-03-14T06:24:11;46.50;41.22;62.33;;
59284;Laerm;45056;47.602;9.886;2023-03-14T06:26:41;49.52;41.75;63.16;;
59284;Laerm;45056;47.602;9.886;2023-03-14T06:29:09;48.48;42.47;58.48;;
59284;Laerm;45056;47.602;9.886;2023-03-14T06:31:37;48.56;39.58;61.77;;
59284;Laerm;45056;47.602;9.886;2023-03-14T06:34:05;48.28;41.75;56.50;;
59284;Laerm;45056;47.602;9.886;2023-03-14T06:36:33;51.09;42.35;64.03;;
59284;Laerm;45056;47.602;9.886;2023-03-14T06:39:01;49.40;42.53;57.68;;
59284;Laerm;45056;47.602;9.886;2023-03-14T06:41:29;50.31;42.22;63.09;;
59284;Laerm;45056;47.602;9.886;2023-03-14T06:43:58;49.00;41.82;61.98;;
59284;Laerm;45056;47.602;9.886;2023-03-14T06:46:27;48.81;41.96;57.23;;
59284;Laerm;45056;47.602;9.886;2023-03-14T06:48:55;46.66;41.06;54.64;;
59284;Laerm;45056;47.602;9.886;2023-03-14T06:51:23;50.10;42.71;62.56;;
59284;Laerm;45056;47.602;9.886;2023-03-14T06:53:51;50.49;42.35;60.48;;
59284;Laerm;45056;47.602;9.886;2023-03-14T06:56:19;49.85;42.88;64.93;;
59284;Laerm;45056;47.602;9.886;2023-03-14T06:58:47;48.70;41.89;56.01;;
59284;Laerm;45056;47.602;9.886;2023-03-14T07:01:24;49.49;42.16;57.89;;
59284;Laerm;45056;47.602;9.886;2023-03-14T07:03:53;45.78;40.89;54.73;;
59284;Laerm;45056;47.602;9.886;2023-03-14T07:06:22;47.25;41.14;58.93;;
59284;Laerm;45056;47.602;9.886;2023-03-14T07:08:50;48.15;40.23;62.37;;
59284;Laerm;45056;47.602;9.886;2023-03-14T07:11:18;46.03;40.13;56.16;;
59284;Laerm;45056;47.602;9.886;2023-03-14T07:13:46;46.19;40.89;57.21;;
59284;Laerm;45056;47.602;9.886;2023-03-14T07:16:14;49.08;40.23;63.42;;
59284;Laerm;45056;47.602;9.886;2023-03-14T07:18:43;50.61;42.47;65.65;;
59284;Laerm;45056;47.602;9.886;2023-03-14T07:21:12;52.76;42.88;71.61;;
59284;Laerm;45056;47.602;9.886;2023-03-14T07:23:40;49.17;41.75;59.21;;
59284;Laerm;45056;47.602;9.886;2023-03-14T07:26:08;47.44;41.46;57.34;;
59284;Laerm;45056;47.602;9.886;2023-03-14T07:28:36;47.94;41.89;59.93;;
59284;Laerm;45056;47.602;9.886;2023-03-14T07:31:04;47.12;40.80;58.72;;
59284;Laerm;45056;47.602;9.886;2023-03-14T07:33:33;46.71;41.06;55.61;;
59284;Laerm;45056;47.602;9.886;2023-03-14T07:36:03;49.41;41.82;63.97;;
59284;Laerm;45056;47.602;9.886;2023-03-14T07:38:31;47.15;41.68;58.52;;
59284;Laerm;45056;47.602;9.886;2023-03-14T07:41:00;46.95;41.06;53.94;;
59284;Laerm;45056;47.602;9.886;2023-03-14T07:43:28;43.35;39.21;50.51;;
59284;Laerm;45056;47.602;9.886;2023-03-14T07:45:56;47.24;40.98;59.06;;
59284;Laerm;45056;47.602;9.886;2023-03-14T07:48:24;52.22;41.14;65.39;;
59284;Laerm;45056;47.602;9.886;2023-03-14T07:50:55;52.43;40.03;70.30;;
59284;Laerm;45056;47.602;9.886;2023-03-14T07:53:25;47.71;39.92;63.72;;
59284;Laerm;45056;47.602;9.886;2023-03-14T07:55:54;45.87;41.14;54.27;;
59284;Laerm;45056;47.602;9.886;2023-03-14T07:58:22;45.07;38.67;55.20;;
59284;Laerm;45056;47.602;9.886;2023-03-14T08:00:52;49.08;40.33;57.77;;
59284;Laerm;45056;47.602;9.886;2023-03-14T08:03:20;46.34;40.98;59.66;;
59284;Laerm;45056;47.602;9.886;2023-03-14T08:05:50;47.56;41.06;60.23;;
59284;Laerm;45056;47.602;9.886;2023-03-14T08:08:18;45.88;40.03;55.99;;
59284;Laerm;45056;47.602;9.886;2023-03-14T08:10:48;49.43;39.92;78.95;;
59284;Laerm;45056;47.602;9.886;2023-03-14T08:13:16;46.00;40.33;56.10;;
59284;Laerm;45056;47.602;9.886;2023-03-14T08:15:48;47.61;41.68;61.07;;
59284;Laerm;45056;47.602;9.886;2023-03-14T08:18:17;48.34;39.68;65.45;;
59284;Laerm;45056;47.602;9.886;2023-03-14T08:20:45;46.86;41.11;56.32;;
59284;Laerm;45056;47.602;9.886;2023-03-14T08:23:13;54.01;39.81;69.79;;
59284;Laerm;45056;47.602;9.886;2023-03-14T08:25:41;48.90;40.13;64.62;;
59284;Laerm;45056;47.602;9.886;2023-03-14T08:28:11;50.59;40.63;72.46;;
59284;Laerm;45056;47.602;9.886;2023-03-14T08:30:39;48.94;40.71;59.14;;
59284;Laerm;45056;47.602;9.886;2023-03-14T08:33:07;46.59;39.58;57.88;;
59284;Laerm;45056;47.602;9.886;2023-03-14T08:35:37;48.51;41.61;69.34;;
59284;Laerm;45056;47.602;9.886;2023-03-14T08:38:05;46.66;40.98;59.41;;
59284;Laerm;45056;47.602;9.886;2023-03-14T08:40:33;48.75;40.98;62.98;;
59284;Laerm;45056;47.602;9.886;2023-03-14T08:43:01;45.67;39.92;57.88;;
59284;Laerm;45056;47.602;9.886;2023-03-14T08:45:30;48.11;41.53;60.78;;
59284;Laerm;45056;47.602;9.886;2023-03-14T08:47:58;46.16;41.06;55.14;;
59284;Laerm;45056;47.602;9.886;2023-03-14T08:50:27;48.27;40.89;62.27;;
59284;Laerm;45056;47.602;9.886;2023-03-14T08:52:55;46.87;41.53;56.38;;
59284;Laerm;45056;47.602;9.886;2023-03-14T08:55:27;47.73;40.98;55.20;;
59284;Laerm;45056;47.602;9.886;2023-03-14T08:57:56;47.73;42.09;59.84;;
59284;Laerm;45056;47.602;9.886;2023-03-14T09:00:24;51.33;41.30;66.08;;
59284;Laerm;45056;47.602;9.886;2023-03-14T09:02:53;67.01;41.46;88.51;;
59284;Laerm;45056;47.602;9.886;2023-03-14T09:05:21;62.51;42.09;81.30;;
59284;Laerm;45056;47.602;9.886;2023-03-14T09:07:49;46.52;41.61;54.27;;
59284;Laerm;45056;47.602;9.886;2023-03-14T09:10:18;46.45;40.43;53.90;;
59284;Laerm;45056;47.602;9.886;2023-03-14T09:12:46;46.74;41.53;54.91;;
59284;Laerm;45056;47.602;9.886;2023-03-14T09:15:14;46.77;42.09;57.44;;
59284;Laerm;45056;47.602;9.886;2023-03-14T09:17:42;45.33;39.81;54.82;;
59284;Laerm;45056;47.602;9.886;2023-03-14T09:20:12;47.30;41.22;57.05;;
59284;Laerm;45056;47.602;9.886;2023-03-14T09:22:41;46.77;41.61;54.59;;
59284;Laerm;45056;47.602;9.886;2023-03-14T09:25:10;49.31;42.47;65.72;;
59284;Laerm;45056;47.602;9.886;2023-03-14T09:27:38;49.23;40.89;63.95;;
59284;Laerm;45056;47.602;9.886;2023-03-14T09:30:08;46.19;40.23;55.96;;
59284;Laerm;45056;47.602;9.886;2023-03-14T09:32:37;47.14;41.38;57.97;;
59284;Laerm;45056;47.602;9.886;2023-03-14T09:35:06;48.19;42.16;59.41;;
59284;Laerm;45056;47.602;9.886;2023-03-14T09:37:35;47.86;42.22;59.31;;
59284;Laerm;45056;47.602;9.886;2023-03-14T09:40:05;48.48;41.61;62.10;;
59284;Laerm;45056;47.602;9.886;2023-03-14T09:42:38;48.20;41.22;61.03;;
59284;Laerm;45056;47.602;9.886;2023-03-14T09:45:17;47.71;41.61;60.40;;
59284;Laerm;45056;47.602;9.886;2023-03-14T09:47:47;46.60;42.09;53.54;;
59284;Laerm;45056;47.602;9.886;2023-03-14T09:50:16;48.08;41.89;59.70;;
59284;Laerm;45056;47.602;9.886;2023-03-14T09:52:51;47.98;41.88;58.06;;
59284;Laerm;45056;47.602;9.886;2023-03-14T09:55:23;48.12;40.53;63.58;;
59284;Laerm;45056;47.602;9.886;2023-03-14T09:58:00;46.90;41.14;56.29;;
59284;Laerm;45056;47.602;9.886;2023-03-14T10:00:31;50.92;43.29;63.88;;
59284;Laerm;45056;47.602;9.886;2023-03-14T10:03:23;48.69;41.53;61.91;;
59284;Laerm;45056;47.602;9.886;2023-03-14T10:05:55;47.60;41.68;57.27;;
59284;Laerm;45056;47.602;9.886;2023-03-14T10:08:26;46.21;41.06;55.11;;
59284;Laerm;45056;47.602;9.886;2023-03-14T10:10:54;46.58;41.68;55.27;;
59284;Laerm;45056;47.602;9.886;2023-03-14T10:13:24;52.13;40.13;69.86;;
59284;Laerm;45056;47.602;9.886;2023-03-14T10:15:59;46.73;40.89;57.35;;
59284;Laerm;45056;47.602;9.886;2023-03-14T10:18:30;46.76;41.82;52.99;;
59284;Laerm;45056;47.602;9.886;2023-03-14T10:21:09;48.66;41.82;65.54;;
59284;Laerm;45056;47.602;9.886;2023-03-14T10:23:45;47.74;41.55;57.45;;
59284;Laerm;45056;47.602;9.886;2023-03-14T10:26:17;50.91;42.09;67.34;;
59284;Laerm;45056;47.602;9.886;2023-03-14T10:28:48;48.00;41.82;56.91;;
59284;Laerm;45056;47.602;9.886;2023-03-14T10:31:24;48.11;42.22;57.36;;
59284;Laerm;45056;47.602;9.886;2023-03-14T10:34:02;47.18;41.53;59.02;;
59284;Laerm;45056;47.602;9.886;2023-03-14T10:36:33;46.51;41.61;57.94;;
59284;Laerm;45056;47.602;9.886;2023-03-14T10:39:32;47.02;40.13;57.67;;
59284;Laerm;45056;47.602;9.886;2023-03-14T10:42:19;47.93;41.06;62.96;;
59284;Laerm;45056;47.602;9.886;2023-03-14T10:44:56;47.67;41.14;59.09;;
59284;Laerm;45056;47.602;9.886;2023-03-14T10:47:27;48.86;41.14;73.18;;
59284;Laerm;45056;47.602;9.886;2023-03-14T10:49:56;48.65;39.34;64.11;;
59284;Laerm;45056;47.602;9.886;2023-03-14T10:52:27;51.10;41.96;69.35;;
59284;Laerm;45056;47.602;9.886;2023-03-14T10:55:01;47.51;41.06;60.38;;
59284;Laerm;45056;47.602;9.886;2023-03-14T10:57:29;51.55;41.14;69.34;;
59284;Laerm;45056;47.602;9.886;2023-03-14T10:59:57;47.62;42.22;57.51;;
59284;Laerm;45056;47.602;9.886;2023-03-14T11:02:48;53.09;43.99;65.18;;
59284;Laerm;45056;47.602;9.886;2023-03-14T11:05:31;59.68;42.41;71.77;;
59284;Laerm;45056;47.602;9.886;2023-03-14T11:08:16;48.49;42.59;56.75;;
59284;Laerm;45056;47.602;9.886;2023-03-14T11:10:54;49.70;42.98;59.01;;
59284;Laerm;45056;47.602;9.886;2023-03-14T11:13:35;49.79;42.22;59.41;;
59284;Laerm;45056;47.602;9.886;2023-03-14T11:16:18;50.13;42.59;60.55;;
59284;Laerm;45056;47.602;9.886;2023-03-14T11:19:20;50.41;41.96;59.67;;
59284;Laerm;45056;47.602;9.886;2023-03-14T11:21:59;49.17;41.89;59.25;;
59284;Laerm;45056;47.602;9.886;2023-03-14T11:24:52;49.55;42.53;59.89;;
59284;Laerm;45056;47.602;9.886;2023-03-14T11:27:36;48.99;41.22;59.40;;
59284;Laerm;45056;47.602;9.886;2023-03-14T11:30:19;48.41;41.14;60.97;;
59284;Laerm;45056;47.602;9.886;2023-03-14T11:33:02;50.55;43.49;61.86;;
59284;Laerm;45056;47.602;9.886;2023-03-14T11:35:39;50.11;42.29;61.10;;
59284;Laerm;45056;47.602;9.886;2023-03-14T11:38:30;51.31;42.82;60.76;;
59284;Laerm;45056;47.602;9.886;2023-03-14T11:41:00;50.47;42.53;59.37;;
59284;Laerm;45056;47.602;9.886;2023-03-14T11:43:35;51.66;43.39;61.33;;
59284;Laerm;45056;47.602;9.886;2023-03-14T11:46:18;52.68;43.44;62.57;;
59284;Laerm;45056;47.602;9.886;2023-03-14T11:49:01;53.17;44.15;62.06;;
59284;Laerm;45056;47.602;9.886;2023-03-14T11:51:36;53.42;44.35;64.73;;
59284;Laerm;45056;47.602;9.886;2023-03-14T11:54:16;52.57;44.31;63.84;;
59284;Laerm;45056;47.602;9.886;2023-03-14T11:56:53;51.33;42.76;62.90;;
59284;Laerm;45056;47.602;9.886;2023-03-14T11:59:33;52.41;44.43;60.38;;
59284;Laerm;45056;47.602;9.886;2023-03-14T12:02:21;50.34;42.98;61.96;;
59284;Laerm;45056;47.602;9.886;2023-03-14T12:08:44;50.86;42.47;62.32;;
59284;Laerm;45056;47.602;9.886;2023-03-14T12:11:24;51.37;42.98;64.26;;
59284;Laerm;45056;47.602;9.886;2023-03-14T12:13:54;50.48;43.39;60.80;;
59284;Laerm;45056;47.602;9.886;2023-03-14T12:16:34;50.75;43.94;61.89;;
59284;Laerm;45056;47.602;9.886;2023-03-14T12:19:29;52.07;44.11;61.75;;
59284;Laerm;45056;47.602;9.886;2023-03-14T12:22:21;53.17;44.94;62.89;;
59284;Laerm;45056;47.602;9.886;2023-03-14T12:24:57;52.45;44.31;63.72;;
59284;Laerm;45056;47.602;9.886;2023-03-14T12:28:03;53.22;44.39;65.64;;
59284;Laerm;45056;47.602;9.886;2023-03-14T12:30:36;53.20;43.81;67.19;;
59284;Laerm;45056;47.602;9.886;2023-03-14T12:33:41;51.66;44.19;61.09;;
59284;Laerm;45056;47.602;9.886;2023-03-14T12:40:06;52.03;43.99;62.12;;
59284;Laerm;45056;47.602;9.886;2023-03-14T12:42:56;52.78;44.35;64.21;;
59284;Laerm;45056;47.602;9.886;2023-03-14T12:45:29;53.63;46.35;63.42;;
59284;Laerm;45056;47.602;9.886;2023-03-14T12:48:10;52.86;45.20;62.79;;
59284;Laerm;45056;47.602;9.886;2023-03-14T12:50:55;54.84;47.38;64.56;;
59284;Laerm;45056;47.602;9.886;2023-03-14T12:53:59;54.23;46.18;64.53;;
59284;Laerm;45056;47.602;9.886;2023-03-14T12:56:54;55.59;47.42;63.18;;
59284;Laerm;45056;47.602;9.886;2023-03-14T12:59:32;55.64;47.98;74.13;;
59284;Laerm;45056;47.602;9.886;2023-03-14T13:02:23;56.06;50.23;68.51;;
59284;Laerm;45056;47.602;9.886;2023-03-14T13:05:03;56.01;48.61;66.32;;
59284;Laerm;45056;47.602;9.886;2023-03-14T13:08:03;55.14;47.26;70.16;;
59284;Laerm;45056;47.602;9.886;2023-03-14T13:10:45;54.52;47.28;62.45;;
59284;Laerm;45056;47.602;9.886;2023-03-14T13:13:21;53.89;46.93;66.40;;
59284;Laerm;45056;47.602;9.886;2023-03-14T13:15:55;55.13;47.44;66.55;;
59284;Laerm;45056;47.602;9.886;2023-03-14T13:18:34;52.85;46.33;62.41;;
59284;Laerm;45056;47.602;9.886;2023-03-14T13:21:10;52.82;45.86;65.37;;
59284;Laerm;45056;47.602;9.886;2023-03-14T13:23:56;53.63;47.26;64.37;;
59284;Laerm;45056;47.602;9.886;2023-03-14T13:26:34;53.33;45.97;62.74;;
59284;Laerm;45056;47.602;9.886;2023-03-14T13:29:15;51.69;44.65;62.58;;
59284;Laerm;45056;47.602;9.886;2023-03-14T13:31:46;51.27;43.14;62.50;;
59284;Laerm;45056;47.602;9.886;2023-03-14T13:34:15;50.66;43.49;61.88;;
59284;Laerm;45056;47.602;9.886;2023-03-14T13:36:44;50.77;43.24;58.32;;
59284;Laerm;45056;47.602;9.886;2023-03-14T13:39:20;50.95;44.03;64.73;;
59284;Laerm;45056;47.602;9.886;2023-03-14T13:41:53;50.17;43.90;56.93;;
59284;Laerm;45056;47.602;9.886;2023-03-14T13:44:30;50.52;43.58;66.66;;
59284;Laerm;45056;47.602;9.886;2023-03-14T13:47:02;53.56;46.40;68.16;;
59284;Laerm;45056;47.602;9.886;2023-03-14T13:49:33;52.11;44.11;69.38;;
59284;Laerm;45056;47.602;9.886;2023-03-14T13:52:02;52.61;43.72;65.67;;
59284;Laerm;45056;47.602;9.886;2023-03-14T13:54:32;52.34;43.81;68.80;;
59284;Laerm;45056;47.602;9.886;2023-03-14T13:57:03;51.96;44.35;71.30;;
59284;Laerm;45056;47.602;9.886;2023-03-14T13:59:34;52.11;44.07;75.17;;
59284;Laerm;45056;47.602;9.886;2023-03-14T14:02:12;51.69;43.68;59.69;;
59284;Laerm;45056;47.602;9.886;2023-03-14T14:04:41;50.62;43.90;57.90;;
59284;Laerm;45056;47.602;9.886;2023-03-14T14:07:15;49.45;43.34;56.88;;
59284;Laerm;45056;47.602;9.886;2023-03-14T14:09:51;50.28;43.54;61.34;;
59284;Laerm;45056;47.602;9.886;2023-03-14T14:12:27;49.10;43.29;59.37;;
59284;Laerm;45056;47.602;9.886;2023-03-14T14:15:05;49.15;43.14;58.05;;
59284;Laerm;45056;47.602;9.886;2023-03-14T14:17:40;50.82;44.39;63.67;;
59284;Laerm;45056;47.602;9.886;2023-03-14T14:20:21;52.57;43.58;79.35;;
59284;Laerm;45056;47.602;9.886;2023-03-14T14:22:52;49.14;43.19;57.71;;